createdAt,value
2023-01-20T00:00:32.837Z,42.55
2023-01-20T00:05:36.623Z,40.33
2023-01-20T00:10:41.523Z,39.17
2023-01-20T00:15:45.213Z,38.45
2023-01-20T00:20:49.037Z,37.90
2023-01-20T00:25:53.935Z,36.15
2023-01-20T00:30:57.547Z,34.33
2023-01-20T00:36:02.752Z,33.97
2023-01-20T00:41:08.261Z,33.03
2023-01-20T00:46:12.502Z,31.23
2023-01-20T00:51:16.161Z,30.83
2023-01-20T00:56:21.054Z,28.42
2023-01-20T01:01:25.237Z,27.35
2023-01-20T01:06:28.933Z,26.40
2023-01-20T01:11:34.011Z,24.50
2023-01-20T01:16:37.767Z,23.63
2023-01-20T01:21:41.548Z,23.02
2023-01-20T01:26:46.500Z,23.08
2023-01-20T01:31:50.121Z,21.50
2023-01-20T01:36:53.737Z,21.23
2023-01-20T01:41:58.620Z,20.20
2023-01-20T01:47:02.840Z,19.65
2023-01-20T01:52:10.803Z,18.77
2023-01-20T01:57:15.820Z,18.42
2023-01-20T02:02:23.969Z,19.02
2023-01-20T02:07:28.446Z,17.02
2023-01-20T02:12:36.723Z,17.15
2023-01-20T02:17:50.557Z,16.25
2023-01-20T02:23:06.254Z,15.10
2023-01-20T02:28:54.045Z,15.00
2023-01-20T02:34:03.408Z,14.43
2023-01-20T02:39:27.256Z,13.70
2023-01-20T02:44:52.758Z,13.18
2023-01-20T02:50:02.894Z,13.07
2023-01-20T02:55:11.437Z,12.82
2023-01-20T03:00:21.840Z,12.15
2023-01-20T03:05:32.737Z,11.63
2023-01-20T03:10:39.148Z,11.00
2023-01-20T03:15:56.988Z,10.98
2023-01-20T03:21:04.759Z,10.57
2023-01-20T03:31:22.447Z,9.65
2023-01-20T03:36:30.316Z,9.82
2023-01-20T03:41:45.532Z,9.25
2023-01-20T03:46:54.847Z,8.93
2023-01-20T03:52:05.916Z,8.75
2023-01-20T03:57:16.529Z,8.48
2023-01-20T04:02:21.588Z,8.45
2023-01-20T04:07:28.751Z,7.65
2023-01-20T04:12:32.508Z,7.97
2023-01-20T04:17:36.345Z,7.93
2023-01-20T04:22:51.889Z,7.10
2023-01-20T04:27:55.455Z,7.07
2023-01-20T04:32:59.052Z,7.30
2023-01-20T04:38:03.970Z,7.03
2023-01-20T04:43:07.507Z,6.90
2023-01-20T04:48:11.851Z,6.32
2023-01-20T04:53:19.188Z,6.20
2023-01-20T04:58:24.164Z,6.65
2023-01-20T05:03:27.788Z,5.95
2023-01-20T05:08:32.752Z,5.65
2023-01-20T05:13:39.259Z,5.78
2023-01-20T05:18:42.920Z,5.70
2023-01-20T05:23:47.859Z,5.40
2023-01-20T05:28:51.516Z,4.93
2023-01-20T05:33:55.117Z,5.13
2023-01-20T05:39:00.121Z,4.97
2023-01-20T05:44:03.737Z,4.75
2023-01-20T05:49:07.412Z,4.82
2023-01-20T05:54:12.359Z,4.88
2023-01-20T05:59:15.966Z,4.70
2023-01-20T06:04:19.521Z,4.95
2023-01-20T06:09:24.644Z,4.47
2023-01-20T06:14:28.183Z,4.55
2023-01-20T06:19:31.633Z,4.40
2023-01-20T06:24:36.560Z,4.05
2023-01-20T06:29:40.049Z,4.22
2023-01-20T06:34:43.756Z,4.30
2023-01-20T06:39:48.634Z,4.15
2023-01-20T06:44:52.189Z,4.10
2023-01-20T06:49:55.695Z,3.80
2023-01-20T06:55:00.574Z,3.50
2023-01-20T07:00:06.248Z,3.80
2023-01-20T07:05:11.260Z,3.65
2023-01-20T07:10:17.132Z,3.40
2023-01-20T07:15:20.759Z,3.53
2023-01-20T07:20:24.336Z,3.20
2023-01-20T07:25:29.767Z,3.22
2023-01-20T07:30:33.456Z,3.05
2023-01-20T07:35:37.056Z,3.45
2023-01-20T07:40:41.952Z,3.22
2023-01-20T07:45:45.498Z,2.80
2023-01-20T07:50:49.021Z,3.20
2023-01-20T07:55:53.940Z,3.22
2023-01-20T08:00:58.393Z,2.83
2023-01-20T08:06:04.749Z,3.20
2023-01-20T08:11:13.625Z,2.90
2023-01-20T08:16:19.831Z,2.90
2023-01-20T08:21:27.038Z,2.70
2023-01-20T08:26:33.621Z,2.70
2023-01-20T08:31:38.357Z,2.45
2023-01-20T08:36:43.298Z,2.60
2023-01-20T08:41:49.476Z,2.70
2023-01-20T08:46:55.097Z,2.35
2023-01-20T08:51:58.939Z,2.60
2023-01-20T08:57:04.024Z,2.33
2023-01-20T09:02:07.956Z,2.50
2023-01-20T09:07:13.609Z,2.60
2023-01-20T09:12:18.578Z,2.53
2023-01-20T09:17:22.188Z,2.50
2023-01-20T09:22:25.846Z,2.60
2023-01-20T09:27:31.183Z,2.40
2023-01-20T09:32:34.665Z,2.50
2023-01-20T09:37:55.893Z,3.03
2023-01-20T09:43:47.015Z,3.75
2023-01-20T09:49:21.522Z,3.97
2023-01-20T09:54:33.373Z,4.40
2023-01-20T09:59:45.446Z,4.90
2023-01-20T10:04:53.871Z,5.35
2023-01-20T10:10:09.526Z,5.07
2023-01-20T10:15:20.486Z,5.35
2023-01-20T10:20:36.178Z,5.53
2023-01-20T10:25:46.749Z,5.72
2023-01-20T10:30:51.837Z,5.93
2023-01-20T10:35:59.532Z,5.50
2023-01-20T10:41:16.701Z,5.00
2023-01-20T10:46:47.581Z,4.90
2023-01-20T10:52:10.308Z,4.38
2023-01-20T10:57:16.461Z,4.40
2023-01-20T11:02:27.797Z,3.83
2023-01-20T11:07:35.271Z,3.85
2023-01-20T11:12:44.449Z,3.40
2023-01-20T11:18:29.039Z,3.22
2023-01-20T11:23:40.888Z,3.22
2023-01-20T11:28:54.202Z,3.28
2023-01-20T11:34:02.593Z,2.88
2023-01-20T11:39:26.676Z,2.70
2023-01-20T11:44:30.949Z,2.70
2023-01-20T11:49:35.963Z,2.78
2023-01-20T11:54:39.476Z,2.50
2023-01-20T11:59:51.932Z,2.50
2023-01-20T12:05:10.345Z,2.33
2023-01-20T12:10:20.760Z,2.28
2023-01-20T12:15:28.748Z,2.28
2023-01-20T12:26:03.194Z,2.10
2023-01-20T12:31:09.789Z,2.10
2023-01-20T12:37:04.414Z,2.20
2023-01-20T12:43:18.626Z,2.10
2023-01-20T12:48:40.586Z,1.92
2023-01-20T12:54:19.584Z,1.90
2023-01-20T12:59:40.513Z,1.88
2023-01-20T13:22:27.640Z,1.73
2023-01-20T13:27:37.720Z,2.08
2023-01-20T13:32:48.262Z,1.88
2023-01-20T13:37:54.294Z,1.70
2023-01-20T13:42:59.459Z,1.50
2023-01-20T13:48:24.987Z,1.67
2023-01-20T13:53:31.227Z,1.85
2023-01-20T13:58:49.232Z,1.80
2023-01-20T14:04:04.817Z,1.58
2023-01-20T14:09:18.483Z,1.92
2023-01-20T14:14:26.634Z,1.75
2023-01-20T14:19:35.665Z,1.67
2023-01-20T14:24:45.601Z,1.60
2023-01-20T14:29:52.848Z,1.60
2023-01-20T14:34:58.183Z,1.57
2023-01-20T14:40:18.127Z,1.63
2023-01-20T14:45:25.655Z,1.70
2023-01-20T14:50:29.893Z,1.70
2023-01-20T14:55:35.570Z,1.67
2023-01-20T15:00:45.147Z,1.50
2023-01-20T15:05:58.253Z,1.50
2023-01-20T15:11:29.038Z,1.45
2023-01-20T15:16:50.206Z,1.50
2023-01-20T15:21:56.353Z,1.55
2023-01-20T15:27:02.619Z,1.42
2023-01-20T15:32:13.458Z,1.65
2023-01-20T15:37:19.822Z,1.50
2023-01-20T15:42:24.361Z,1.65
2023-01-20T15:47:31.297Z,1.60
2023-01-20T15:52:34.884Z,1.60
2023-01-20T15:57:38.502Z,1.42
2023-01-20T16:02:43.675Z,1.70
2023-01-20T16:07:49.485Z,1.70
2023-01-20T16:12:53.058Z,1.90
2023-01-20T16:17:58.060Z,1.40
2023-01-20T16:23:01.559Z,1.45
2023-01-20T16:28:18.427Z,1.73
2023-01-20T16:33:25.991Z,1.55
2023-01-20T16:38:29.768Z,1.80
2023-01-20T16:43:33.432Z,1.98
2023-01-20T16:48:38.379Z,3.15
2023-01-20T16:53:42.340Z,3.33
2023-01-20T16:58:47.984Z,2.88
2023-01-20T17:03:55.739Z,2.95
2023-01-20T17:09:02.526Z,2.90
2023-01-20T17:14:10.280Z,2.80
2023-01-20T17:19:17.710Z,2.95
2023-01-20T17:24:21.420Z,2.55
2023-01-20T17:29:25.446Z,2.53
2023-01-20T17:34:30.539Z,2.80
2023-01-20T17:39:34.101Z,3.00
2023-01-20T17:44:37.879Z,2.78
2023-01-20T17:49:42.791Z,2.58
2023-01-20T17:54:46.358Z,2.30
2023-01-20T17:59:50.623Z,2.50
2023-01-20T18:04:55.702Z,2.40
2023-01-20T18:09:59.659Z,2.30
2023-01-20T18:15:04.234Z,2.28
2023-01-20T18:20:12.752Z,2.33
2023-01-20T18:25:16.546Z,2.10
2023-01-20T18:30:20.518Z,2.08
2023-01-20T18:35:25.529Z,2.10
2023-01-20T18:40:29.708Z,2.00
2023-01-20T18:45:33.368Z,1.63
2023-01-20T18:50:38.310Z,1.90
2023-01-20T18:55:42.196Z,1.80
2023-01-20T19:00:45.800Z,2.15
2023-01-20T19:05:50.897Z,1.70
2023-01-20T19:10:54.384Z,2.00
2023-01-20T19:15:58.455Z,1.73
2023-01-20T19:21:07.867Z,1.85
2023-01-20T19:26:14.665Z,1.75
2023-01-20T19:31:20.365Z,1.90
2023-01-20T19:36:25.842Z,1.65
2023-01-20T19:41:33.369Z,1.70
2023-01-20T19:46:39.740Z,1.70
2023-01-20T19:51:44.820Z,1.75
2023-01-20T19:56:48.572Z,1.58
2023-01-20T20:01:52.310Z,1.77
2023-01-20T20:06:57.888Z,1.90
2023-01-20T20:12:06.024Z,1.60
2023-01-20T20:17:09.638Z,2.10
2023-01-20T20:22:14.667Z,2.38
2023-01-20T20:27:18.133Z,2.30
2023-01-20T20:32:21.731Z,2.17
2023-01-20T20:37:27.090Z,2.42
2023-01-20T20:42:31.195Z,2.28
2023-01-20T20:47:34.740Z,2.10
2023-01-20T20:52:39.647Z,1.95
2023-01-20T20:57:43.574Z,2.00
2023-01-20T21:02:47.129Z,2.00
2023-01-20T21:07:52.562Z,2.30
2023-01-20T21:12:56.980Z,2.30
2023-01-20T21:18:00.660Z,1.92
2023-01-20T21:23:05.556Z,2.30
2023-01-20T21:28:09.840Z,2.17
2023-01-20T21:33:17.578Z,2.10
2023-01-20T21:38:22.633Z,2.35
2023-01-20T21:43:43.935Z,2.08
2023-01-20T21:49:05.707Z,1.92
2023-01-20T21:54:10.669Z,2.10
2023-01-20T21:59:14.226Z,2.00
2023-01-20T22:04:18.121Z,1.98
2023-01-20T22:09:23.324Z,2.10
2023-01-20T22:14:27.191Z,1.98
2023-01-20T22:19:30.810Z,2.10
2023-01-20T22:24:35.793Z,2.15
2023-01-20T22:29:39.334Z,2.90
2023-01-20T22:34:42.859Z,3.88
2023-01-20T22:39:48.980Z,3.83
2023-01-20T22:44:52.595Z,3.90
2023-01-20T22:49:57.077Z,3.95
2023-01-20T22:55:01.934Z,3.92
2023-01-20T23:00:08.565Z,3.90
2023-01-20T23:05:12.530Z,3.95
2023-01-20T23:10:32.369Z,3.70
2023-01-20T23:15:36.357Z,3.72
2023-01-20T23:20:40.755Z,3.58
2023-01-20T23:25:45.932Z,4.10
2023-01-20T23:30:49.545Z,4.10
2023-01-20T23:35:53.053Z,3.72
2023-01-20T23:40:58.256Z,3.75
2023-01-20T23:46:04.701Z,3.67
2023-01-20T23:51:08.951Z,3.75
2023-01-20T23:56:17.064Z,3.67
